• Join FlightAware (Why Join?)
  • Login
  • US Flag 
01:53PM EDT


 

Airport Tracker/Info


-or-


 

Live Flight TrackerFlight Track Log ✈ AAL1459 ✈ 13-May-2013 ✈ KBOS - KORD

Flight Track Log - Related Links

Times and Time Zones

All times are in EDT time to prevent confusion due to time zone crossing. See the AAL1459 flight status page for this flight to view local times or setup timezone preferences in your user account.

Time Position Orientation Groundspeed Altitude Reporting Facility
EDT Latitude Longitude Course Direction KTS MPH feet Rate Location/Type
02:18PM 42.3500 -71.0167 304° West 174 200 700  Level KA90
02:18PM 42.3333 -71.0000 144° Southeast 191 220 1,800 2,400 Climbing KA90
02:19PM 42.3167 -70.9167 105° East 250 288 4,600 3,000 Climbing KA90
02:20PM 42.5490 -70.8078 340° North  Level FlightAware Approximate
02:20PM 42.3333 -70.8167 77° East 252 290 7,900  Level KA90
02:21PM 42.6190 -70.9082 308° West  Level FlightAware Approximate
02:22PM 42.6732 -71.0289 300° West  Level FlightAware Approximate
02:22PM 42.3856 -70.7422 46° Northeast 372 428 11,000  Level Boston Center
02:23PM 42.7257 -71.1513 304° West  Level FlightAware Approximate
02:23PM 42.4625 -70.7347 North 309 356 13,400  Level Boston Center
02:24PM 42.5428 -70.7944 331° Northwest 291 335 13,900 1,140 Climbing Boston Center
02:25PM 42.6028 -70.9111 305° West 302 348 15,700 1,980 Climbing Boston Center
02:26PM 42.6583 -71.0200 305° West 342 394 18,300 2,400 Climbing Boston Center
02:27PM 42.7244 -71.1514 304° West 371 427 21,000 2,400 Climbing Boston Center
02:28PM 42.7800 -71.2747 302° West 377 434 23,200 1,980 Climbing Boston Center
02:29PM 42.8039 -71.3844 287° West 377 434 25,000 2,100 Climbing Boston Center
02:30PM 42.8347 -71.5653 283° West 377 434 27,400 1,920 Climbing Boston Center
02:31PM 42.8628 -71.7036 286° West 382 440 28,900 1,560 Climbing Boston Center
02:32PM 42.8886 -71.8478 284° West 382 440 30,600 1,320 Climbing Boston Center
02:33PM 42.9142 -71.9950 283° West 392 451 31,600 960 Climbing Boston Center
02:34PM 42.9439 -72.1422 285° West 403 464 32,600 1,080 Climbing Boston Center
02:35PM 42.9714 -72.2839 285° West 419 482 33,800 540 Climbing Boston Center
02:36PM 43.0006 -72.4344 285° West 419 482 33,900  Climbing Boston Center
02:37PM 43.0131 -72.6161 275° West 408 470 33,900  Level Boston Center
02:38PM 43.0086 -72.7667 268° West 403 464 34,000  Climbing Boston Center
02:39PM 43.0142 -72.9200 273° West 403 464 34,000  Level Boston Center
02:40PM 43.0217 -73.0847 274° West 403 464 34,000  Level Boston Center
02:41PM 43.0272 -73.2239 273° West 403 464 34,000  Level Boston Center
02:42PM 43.0300 -73.3917 271° West 403 464 34,000 -60 Level Boston Center
02:43PM 43.0350 -73.5450 273° West 403 464 33,900  Descending Boston Center
02:44PM 43.0394 -73.6986 272° West 403 464 34,000  Climbing Boston Center
02:45PM 43.0461 -73.8522 273° West 403 464 34,000  Level Boston Center
02:46PM 43.0525 -74.0028 273° West 403 464 34,000  Level Boston Center
02:47PM 43.0564 -74.1564 272° West 403 464 34,000  Level Boston Center
02:48PM 43.0603 -74.3156 272° West 409 471 34,000  Level Boston Center
02:49PM 43.0639 -74.4692 272° West 409 471 34,000  Level Boston Center
02:50PM 43.0672 -74.6256 272° West 409 471 34,000  Level Boston Center
02:51PM 43.0703 -74.7850 272° West 414 476 34,000 -60 Level Boston Center
02:52PM 43.0753 -74.9444 273° West 420 483 33,900  Descending Boston Center
02:53PM 43.0800 -75.1036 272° West 425 489 34,000  Climbing Boston Center
02:54PM 43.0803 -75.2631 270° West 425 489 34,000  Level Boston Center
02:55PM 43.0833 -75.3939 272° West 425 489 34,000  Level Boston Center
02:56PM 43.0869 -75.5706 272° West 425 489 34,000 -60 Level Boston Center
02:57PM 43.0906 -75.7356 272° West 425 489 33,900  Descending Boston Center
02:59PM 43.0667 -76.0500 264° West 430 495 34,000  Climbing Toronto Center
02:59PM 43.0933 -76.1275 295° West 428 493 33,900  Descending Cleveland Center
03:00PM 43.0956 -76.2925 271° West 428 493 34,000  Climbing Cleveland Center
03:01PM 43.0972 -76.4544 271° West 428 493 33,900  Descending Cleveland Center
03:02PM 43.0989 -76.6164 271° West 428 493 34,000  Climbing Cleveland Center
03:03PM 43.0986 -76.7956 270° West 428 493 34,000  Level Cleveland Center
03:04PM 43.0994 -76.9550 270° West 428 493 34,000  Level Cleveland Center
03:05PM 43.1003 -77.1197 270° West 428 493 34,000  Level Cleveland Center
03:06PM 43.1008 -77.2819 270° West 428 493 34,000  Level Cleveland Center
03:07PM 43.0992 -77.4442 269° West 428 493 34,000  Level Cleveland Center
03:08PM 43.1011 -77.5919 271° West 434 499 34,000  Level Cleveland Center
03:09PM 43.1008 -77.7539 270° West 434 499 34,000  Level Cleveland Center
03:10PM 43.0986 -77.9189 269° West 434 499 34,000  Level Cleveland Center
03:11PM 43.0981 -78.0839 270° West 439 505 34,000  Level Cleveland Center
03:12PM 43.0972 -78.2461 270° West 439 505 34,000  Level Cleveland Center
03:13PM 43.0964 -78.4139 270° West 444 511 34,000  Level Cleveland Center
03:14PM 43.0953 -78.5789 270° West 444 511 34,000  Level Cleveland Center
03:15PM 43.0936 -78.7408 269° West 439 505 34,000  Level Cleveland Center
03:16PM 43.0900 -78.9058 268° West 439 505 34,000  Level Cleveland Center
03:17PM 43.0833 -79.0167 265° West 440 506 34,000  Level Toronto Center
03:18PM 43.0833 -79.1833 270° West 440 506 34,000  Level Toronto Center
03:19PM 43.0667 -79.3333 261° West 440 506 34,000  Level Toronto Center
03:20PM 43.0667 -79.5167 270° West 440 506 34,000  Level Toronto Center
03:21PM 43.0667 -79.6833 270° West 430 495 34,000  Level Toronto Center
03:22PM 43.0667 -79.8333 270° West 430 495 34,000  Level Toronto Center
03:23PM 43.0667 -80.0000 270° West 430 495 34,000  Level Toronto Center
03:24PM 43.0500 -80.1500 261° West 430 495 34,000  Level Toronto Center
03:25PM 43.0500 -80.3167 270° West 430 495 34,000  Level Toronto Center
03:26PM 43.0500 -80.4833 270° West 440 506 34,000  Level Toronto Center
03:27PM 43.0500 -80.6667 270° West 440 506 34,000  Level Toronto Center
03:28PM 43.0333 -80.8167 261° West 440 506 34,000  Level Toronto Center
03:29PM 43.0167 -81.0000 263° West 440 506 34,000  Level Toronto Center
03:30PM 43.0167 -81.1667 270° West 430 495 34,000  Level Toronto Center
03:31PM 43.0167 -81.3167 270° West 430 495 34,000  Level Toronto Center
03:32PM 43.0167 -81.4833 270° West 430 495 34,000  Level Toronto Center
03:33PM 43.0167 -81.6333 270° West 420 483 34,000  Level Toronto Center
03:34PM 43.0167 -81.8000 270° West 420 483 34,000  Level Toronto Center
03:35PM 43.0000 -81.9667 262° West 420 483 34,000  Level Toronto Center
03:36PM 43.0000 -82.1167 270° West 420 483 34,000  Level Toronto Center
03:37PM 43.0000 -82.2833 270° West 420 483 34,000  Level Toronto Center
03:38PM 43.0000 -82.4333 270° West 420 483 34,000  Level Toronto Center
03:39PM 43.0000 -82.6000 270° West 420 483 34,000  Level Toronto Center
03:40PM 42.9833 -82.7500 261° West 410 472 34,000  Level Toronto Center
03:41PM 42.9833 -82.9167 270° West 410 472 34,000  Level Toronto Center
03:42PM 42.9833 -83.0667 270° West 410 472 34,000 -600 Level Toronto Center
03:43PM 42.9667 -83.2333 262° West 410 472 32,900 -1,020 Descending Toronto Center
03:44PM 42.9667 -83.4000 270° West 420 483 32,000 -480 Descending Toronto Center
03:45PM 42.9667 -83.5500 270° West 420 483 32,000  Level Toronto Center
03:46PM 42.9667 -83.6833 270° West 410 472 32,000  Level Toronto Center
03:47PM 42.9333 -83.8667 256° West 420 483 32,000  Level Toronto Center
03:48PM 42.9333 -84.0000 270° West 420 483 32,000  Level Toronto Center
03:49PM 42.9000 -84.1667 255° West 420 483 32,000  Level Toronto Center
03:50PM 42.9164 -84.2617 283° West 415 478 32,000  Level Chicago Center
03:50PM 42.9047 -84.3617 261° West 423 487 32,000  Level Cleveland Center
03:51PM 42.9006 -84.4192 264° West 420 483 32,000  Level Chicago Center
03:52PM 42.8844 -84.5756 262° West 419 482 32,000  Level Chicago Center
03:53PM 42.8686 -84.7331 262° West 421 484 32,000  Level Chicago Center
03:54PM 42.8517 -84.8917 262° West 422 486 32,000  Level Chicago Center
03:55PM 42.8347 -85.0511 262° West 426 490 32,000  Level Chicago Center
03:56PM 42.8144 -85.2419 262° West 427 491 32,000  Level Chicago Center
03:57PM 42.7969 -85.4022 262° West 427 491 32,000 -300 Level Chicago Center
03:58PM 42.7758 -85.5611 260° West 427 491 31,500 -1,440 Descending Chicago Center
03:59PM 42.7464 -85.7203 256° West 430 495 29,100 -2,640 Descending Chicago Center
04:00PM 42.7175 -85.8800 256° West 432 497 26,100 -2,580 Descending Chicago Center
04:01PM 42.6889 -86.0350 256° West 423 487 23,800 -2,280 Descending Chicago Center
04:02PM 42.6625 -86.1836 256° West 407 468 21,400 -1,860 Descending Chicago Center
04:03PM 42.6300 -86.3525 255° West 387 445 20,000 -960 Descending Chicago Center
04:04PM 42.6022 -86.4925 255° West 384 442 19,500 -960 Descending Chicago Center
04:05PM 42.5772 -86.6319 256° West 379 436 18,100 -1,500 Descending Chicago Center
04:06PM 42.5514 -86.7703 256° West 369 425 16,500 -1,500 Descending Chicago Center
04:07PM 42.5161 -86.8958 249° West 370 426 15,100 -1,440 Descending Chicago Center
04:08PM 42.4808 -87.0228 249° West 362 417 13,600 -1,620 Descending Chicago Center
04:09PM 42.4369 -87.1722 248° West 353 406 11,800 -1,560 Descending Chicago Center
04:10PM 42.4053 -87.2892 250° West 344 396 10,400 -900 Descending Chicago Center
04:11PM 42.3714 -87.4139 250° West 350 403 10,000 -240 Descending Chicago Center
04:12PM 42.3369 -87.5350 249° West 349 402 10,000  Level Chicago Center
04:13PM 42.2558 -87.6203 218° Southwest 370 426 10,000  Level Chicago Center
04:14PM 42.1603 -87.7228 219° Southwest 365 420 10,000 -120 Level Chicago Center
04:15PM 42.1167 -87.7667 217° Southwest 307 353 9,900 -960 Descending Chicago TRACON
04:16PM 42.0833 -87.8667 246° West 271 312 8,500 -1,140 Descending Chicago TRACON
04:17PM 42.0500 -87.9500 242° Southwest 249 287 7,700 -900 Descending Chicago TRACON
04:18PM 42.0333 -88.0167 251° West 207 238 6,700 -1,320 Descending Chicago TRACON
04:19PM 42.0500 -88.1000 285° West 209 241 5,100 -1,440 Descending Chicago TRACON
04:20PM 42.0461 -88.1403 263° West 209 241 4,500 -720 Descending Chicago Center
04:21PM 42.0103 -88.1733 214° Southwest 206 237 4,000 -420 Descending Chicago Center
04:22PM 41.9667 -88.1461 155° Southeast 202 232 3,700 -540 Descending Chicago Center
04:22PM 41.9667 -88.1167 90° East 198 228 3,300 -1,020 Descending Chicago TRACON
04:23PM 41.9667 -88.0500 90° East 186 214 2,400 -900 Descending Chicago TRACON
04:24PM 41.9667 -87.9833 90° East 160 184 1,500 -900 Descending Chicago TRACON